sensor_id;sensor_type;location;lat;lon;timestamp;P1;durP1;ratioP1;P2;durP2;ratioP2
63346;SDS011;49472;49.880;8.650;2023-06-19T00:01:55;29.30;;;17.73;;
63346;SDS011;49472;49.880;8.650;2023-06-19T00:04:20;17.80;;;16.50;;
63346;SDS011;49472;49.880;8.650;2023-06-19T00:06:45;17.73;;;16.38;;
63346;SDS011;49472;49.880;8.650;2023-06-19T00:09:11;19.33;;;17.63;;
63346;SDS011;49472;49.880;8.650;2023-06-19T00:11:36;18.98;;;17.08;;
63346;SDS011;49472;49.880;8.650;2023-06-19T00:14:01;18.63;;;17.23;;
63346;SDS011;49472;49.880;8.650;2023-06-19T00:16:27;18.13;;;16.52;;
63346;SDS011;49472;49.880;8.650;2023-06-19T00:18:52;18.17;;;16.85;;
63346;SDS011;49472;49.880;8.650;2023-06-19T00:21:21;17.67;;;16.38;;
63346;SDS011;49472;49.880;8.650;2023-06-19T00:23:48;18.67;;;17.27;;
63346;SDS011;49472;49.880;8.650;2023-06-19T00:26:16;18.90;;;17.17;;
63346;SDS011;49472;49.880;8.650;2023-06-19T00:28:41;20.52;;;18.45;;
63346;SDS011;49472;49.880;8.650;2023-06-19T00:31:08;18.55;;;17.00;;
63346;SDS011;49472;49.880;8.650;2023-06-19T00:33:34;17.73;;;16.42;;
63346;SDS011;49472;49.880;8.650;2023-06-19T00:35:59;19.45;;;17.85;;
63346;SDS011;49472;49.880;8.650;2023-06-19T00:38:26;18.92;;;17.13;;
63346;SDS011;49472;49.880;8.650;2023-06-19T00:40:51;17.33;;;15.93;;
63346;SDS011;49472;49.880;8.650;2023-06-19T00:43:16;18.58;;;17.15;;
63346;SDS011;49472;49.880;8.650;2023-06-19T00:45:42;19.30;;;17.55;;
63346;SDS011;49472;49.880;8.650;2023-06-19T00:48:07;20.33;;;18.35;;
63346;SDS011;49472;49.880;8.650;2023-06-19T00:50:33;17.02;;;15.82;;
63346;SDS011;49472;49.880;8.650;2023-06-19T00:52:59;20.13;;;18.13;;
63346;SDS011;49472;49.880;8.650;2023-06-19T00:55:28;18.48;;;17.08;;
63346;SDS011;49472;49.880;8.650;2023-06-19T00:57:55;19.85;;;18.13;;
63346;SDS011;49472;49.880;8.650;2023-06-19T01:00:20;19.70;;;18.10;;
63346;SDS011;49472;49.880;8.650;2023-06-19T01:02:46;20.83;;;18.85;;
63346;SDS011;49472;49.880;8.650;2023-06-19T01:05:11;19.20;;;17.67;;
63346;SDS011;49472;49.880;8.650;2023-06-19T01:10:09;18.95;;;17.40;;
63346;SDS011;49472;49.880;8.650;2023-06-19T01:12:40;19.85;;;18.27;;
63346;SDS011;49472;49.880;8.650;2023-06-19T01:15:13;20.92;;;19.30;;
63346;SDS011;49472;49.880;8.650;2023-06-19T01:17:39;20.80;;;18.98;;
63346;SDS011;49472;49.880;8.650;2023-06-19T01:20:05;21.42;;;19.73;;
63346;SDS011;49472;49.880;8.650;2023-06-19T01:22:36;20.52;;;18.83;;
63346;SDS011;49472;49.880;8.650;2023-06-19T01:25:02;22.05;;;20.02;;
63346;SDS011;49472;49.880;8.650;2023-06-19T01:27:29;20.80;;;19.15;;
63346;SDS011;49472;49.880;8.650;2023-06-19T01:29:55;21.20;;;19.13;;
63346;SDS011;49472;49.880;8.650;2023-06-19T01:32:47;21.80;;;19.98;;
63346;SDS011;49472;49.880;8.650;2023-06-19T01:35:27;22.13;;;20.10;;
63346;SDS011;49472;49.880;8.650;2023-06-19T01:37:54;21.95;;;19.17;;
63346;SDS011;49472;49.880;8.650;2023-06-19T01:40:20;23.52;;;21.00;;
63346;SDS011;49472;49.880;8.650;2023-06-19T01:42:49;22.38;;;20.25;;
63346;SDS011;49472;49.880;8.650;2023-06-19T01:45:17;23.17;;;21.27;;
63346;SDS011;49472;49.880;8.650;2023-06-19T01:47:43;22.45;;;20.73;;
63346;SDS011;49472;49.880;8.650;2023-06-19T01:50:09;27.05;;;22.27;;
63346;SDS011;49472;49.880;8.650;2023-06-19T01:52:37;23.08;;;20.95;;
63346;SDS011;49472;49.880;8.650;2023-06-19T01:55:03;23.00;;;20.85;;
63346;SDS011;49472;49.880;8.650;2023-06-19T01:57:29;22.38;;;20.63;;
63346;SDS011;49472;49.880;8.650;2023-06-19T01:59:54;23.23;;;20.75;;
63346;SDS011;49472;49.880;8.650;2023-06-19T02:02:20;22.02;;;20.17;;
63346;SDS011;49472;49.880;8.650;2023-06-19T02:04:45;23.20;;;21.30;;
63346;SDS011;49472;49.880;8.650;2023-06-19T02:07:11;22.70;;;20.73;;
63346;SDS011;49472;49.880;8.650;2023-06-19T02:09:37;21.92;;;20.00;;
63346;SDS011;49472;49.880;8.650;2023-06-19T02:12:03;24.40;;;21.92;;
63346;SDS011;49472;49.880;8.650;2023-06-19T02:14:28;25.00;;;22.58;;
63346;SDS011;49472;49.880;8.650;2023-06-19T02:16:53;23.95;;;21.70;;
63346;SDS011;49472;49.880;8.650;2023-06-19T02:19:19;24.92;;;22.10;;
63346;SDS011;49472;49.880;8.650;2023-06-19T02:21:44;24.70;;;22.50;;
63346;SDS011;49472;49.880;8.650;2023-06-19T02:24:09;23.35;;;21.15;;
63346;SDS011;49472;49.880;8.650;2023-06-19T02:26:35;23.52;;;21.25;;
63346;SDS011;49472;49.880;8.650;2023-06-19T02:29:00;24.55;;;22.25;;
63346;SDS011;49472;49.880;8.650;2023-06-19T02:31:25;26.15;;;21.40;;
63346;SDS011;49472;49.880;8.650;2023-06-19T02:33:51;24.15;;;21.10;;
63346;SDS011;49472;49.880;8.650;2023-06-19T02:36:16;23.92;;;21.67;;
63346;SDS011;49472;49.880;8.650;2023-06-19T02:38:53;23.33;;;21.42;;
63346;SDS011;49472;49.880;8.650;2023-06-19T02:41:19;23.90;;;21.73;;
63346;SDS011;49472;49.880;8.650;2023-06-19T02:43:44;23.17;;;20.75;;
63346;SDS011;49472;49.880;8.650;2023-06-19T02:46:13;23.45;;;21.13;;
63346;SDS011;49472;49.880;8.650;2023-06-19T02:48:39;23.20;;;20.90;;
63346;SDS011;49472;49.880;8.650;2023-06-19T02:51:04;22.40;;;20.60;;
63346;SDS011;49472;49.880;8.650;2023-06-19T02:53:29;23.50;;;21.48;;
63346;SDS011;49472;49.880;8.650;2023-06-19T02:55:55;22.80;;;20.80;;
63346;SDS011;49472;49.880;8.650;2023-06-19T02:58:20;21.50;;;19.75;;
63346;SDS011;49472;49.880;8.650;2023-06-19T03:00:46;21.52;;;19.88;;
63346;SDS011;49472;49.880;8.650;2023-06-19T03:03:11;25.30;;;19.90;;
63346;SDS011;49472;49.880;8.650;2023-06-19T03:05:37;20.25;;;18.65;;
63346;SDS011;49472;49.880;8.650;2023-06-19T03:08:02;23.13;;;20.38;;
63346;SDS011;49472;49.880;8.650;2023-06-19T03:10:28;22.27;;;20.30;;
63346;SDS011;49472;49.880;8.650;2023-06-19T03:12:53;22.08;;;19.80;;
63346;SDS011;49472;49.880;8.650;2023-06-19T03:15:19;22.80;;;20.80;;
63346;SDS011;49472;49.880;8.650;2023-06-19T03:17:44;21.95;;;19.73;;
63346;SDS011;49472;49.880;8.650;2023-06-19T03:20:09;21.75;;;19.73;;
63346;SDS011;49472;49.880;8.650;2023-06-19T03:22:38;23.10;;;21.13;;
63346;SDS011;49472;49.880;8.650;2023-06-19T03:25:07;21.58;;;19.58;;
63346;SDS011;49472;49.880;8.650;2023-06-19T03:27:33;23.85;;;21.45;;
63346;SDS011;49472;49.880;8.650;2023-06-19T03:29:58;23.38;;;20.92;;
63346;SDS011;49472;49.880;8.650;2023-06-19T03:32:24;23.83;;;21.58;;
63346;SDS011;49472;49.880;8.650;2023-06-19T03:34:49;24.90;;;22.60;;
63346;SDS011;49472;49.880;8.650;2023-06-19T03:37:14;22.23;;;20.52;;
63346;SDS011;49472;49.880;8.650;2023-06-19T03:39:40;23.50;;;21.50;;
63346;SDS011;49472;49.880;8.650;2023-06-19T03:42:05;23.10;;;20.60;;
63346;SDS011;49472;49.880;8.650;2023-06-19T03:44:31;23.55;;;21.45;;
63346;SDS011;49472;49.880;8.650;2023-06-19T03:46:56;24.65;;;22.75;;
63346;SDS011;49472;49.880;8.650;2023-06-19T03:49:22;25.20;;;21.90;;
63346;SDS011;49472;49.880;8.650;2023-06-19T03:51:47;24.92;;;22.52;;
63346;SDS011;49472;49.880;8.650;2023-06-19T03:54:12;24.13;;;22.13;;
63346;SDS011;49472;49.880;8.650;2023-06-19T03:56:38;24.00;;;22.05;;
63346;SDS011;49472;49.880;8.650;2023-06-19T03:59:04;24.13;;;21.77;;
63346;SDS011;49472;49.880;8.650;2023-06-19T04:01:29;24.08;;;22.08;;
63346;SDS011;49472;49.880;8.650;2023-06-19T04:03:54;24.50;;;22.13;;
63346;SDS011;49472;49.880;8.650;2023-06-19T04:06:20;24.83;;;22.73;;
63346;SDS011;49472;49.880;8.650;2023-06-19T04:08:46;24.77;;;22.75;;
63346;SDS011;49472;49.880;8.650;2023-06-19T04:11:11;23.17;;;21.27;;
63346;SDS011;49472;49.880;8.650;2023-06-19T04:13:36;22.63;;;20.83;;
63346;SDS011;49472;49.880;8.650;2023-06-19T04:16:03;22.58;;;20.77;;
63346;SDS011;49472;49.880;8.650;2023-06-19T04:18:29;21.63;;;19.83;;
63346;SDS011;49472;49.880;8.650;2023-06-19T04:20:54;22.10;;;19.83;;
63346;SDS011;49472;49.880;8.650;2023-06-19T04:23:19;24.52;;;22.20;;
63346;SDS011;49472;49.880;8.650;2023-06-19T04:25:45;22.90;;;21.00;;
63346;SDS011;49472;49.880;8.650;2023-06-19T04:28:11;22.10;;;20.40;;
63346;SDS011;49472;49.880;8.650;2023-06-19T04:30:36;21.52;;;19.70;;
63346;SDS011;49472;49.880;8.650;2023-06-19T04:33:04;22.45;;;20.13;;
63346;SDS011;49472;49.880;8.650;2023-06-19T04:35:30;21.90;;;19.95;;
63346;SDS011;49472;49.880;8.650;2023-06-19T04:37:56;22.25;;;20.40;;
63346;SDS011;49472;49.880;8.650;2023-06-19T04:40:26;22.50;;;20.70;;
63346;SDS011;49472;49.880;8.650;2023-06-19T04:42:52;22.13;;;20.30;;
63346;SDS011;49472;49.880;8.650;2023-06-19T04:45:19;22.02;;;20.05;;
63346;SDS011;49472;49.880;8.650;2023-06-19T04:47:45;21.83;;;20.00;;
63346;SDS011;49472;49.880;8.650;2023-06-19T04:50:11;22.45;;;20.63;;
63346;SDS011;49472;49.880;8.650;2023-06-19T04:52:36;23.33;;;21.02;;
63346;SDS011;49472;49.880;8.650;2023-06-19T04:55:03;21.50;;;19.60;;
63346;SDS011;49472;49.880;8.650;2023-06-19T04:57:30;20.20;;;18.30;;
63346;SDS011;49472;49.880;8.650;2023-06-19T04:59:55;20.77;;;19.08;;
63346;SDS011;49472;49.880;8.650;2023-06-19T05:02:24;18.98;;;17.38;;
63346;SDS011;49472;49.880;8.650;2023-06-19T05:04:49;19.65;;;18.15;;
63346;SDS011;49472;49.880;8.650;2023-06-19T05:07:15;19.17;;;17.48;;
63346;SDS011;49472;49.880;8.650;2023-06-19T05:09:42;21.27;;;18.58;;
63346;SDS011;49472;49.880;8.650;2023-06-19T05:12:09;20.23;;;18.50;;
63346;SDS011;49472;49.880;8.650;2023-06-19T05:14:35;19.52;;;18.13;;
63346;SDS011;49472;49.880;8.650;2023-06-19T05:17:00;19.17;;;17.75;;
63346;SDS011;49472;49.880;8.650;2023-06-19T05:19:25;19.38;;;17.88;;
63346;SDS011;49472;49.880;8.650;2023-06-19T05:21:52;18.25;;;16.92;;
63346;SDS011;49472;49.880;8.650;2023-06-19T05:24:17;18.98;;;17.58;;
63346;SDS011;49472;49.880;8.650;2023-06-19T05:26:43;19.40;;;17.90;;
63346;SDS011;49472;49.880;8.650;2023-06-19T05:29:08;18.67;;;17.40;;
63346;SDS011;49472;49.880;8.650;2023-06-19T05:31:35;20.23;;;18.83;;
63346;SDS011;49472;49.880;8.650;2023-06-19T05:34:00;19.85;;;18.05;;
63346;SDS011;49472;49.880;8.650;2023-06-19T05:36:26;19.15;;;17.75;;
63346;SDS011;49472;49.880;8.650;2023-06-19T05:38:51;18.52;;;17.02;;
63346;SDS011;49472;49.880;8.650;2023-06-19T05:41:16;18.80;;;17.50;;
63346;SDS011;49472;49.880;8.650;2023-06-19T05:43:42;19.42;;;17.67;;
63346;SDS011;49472;49.880;8.650;2023-06-19T05:46:08;18.63;;;17.20;;
63346;SDS011;49472;49.880;8.650;2023-06-19T05:48:33;17.80;;;16.70;;
63346;SDS011;49472;49.880;8.650;2023-06-19T05:50:58;23.30;;;18.42;;
63346;SDS011;49472;49.880;8.650;2023-06-19T05:53:24;18.33;;;17.00;;
63346;SDS011;49472;49.880;8.650;2023-06-19T05:55:49;19.17;;;17.67;;
63346;SDS011;49472;49.880;8.650;2023-06-19T05:58:16;19.55;;;18.00;;
63346;SDS011;49472;49.880;8.650;2023-06-19T06:00:45;19.67;;;18.10;;
63346;SDS011;49472;49.880;8.650;2023-06-19T06:03:10;18.58;;;17.13;;
63346;SDS011;49472;49.880;8.650;2023-06-19T06:05:36;18.52;;;16.65;;
63346;SDS011;49472;49.880;8.650;2023-06-19T06:08:01;17.63;;;16.23;;
63346;SDS011;49472;49.880;8.650;2023-06-19T06:10:27;19.42;;;17.70;;
63346;SDS011;49472;49.880;8.650;2023-06-19T06:12:53;18.52;;;17.27;;
63346;SDS011;49472;49.880;8.650;2023-06-19T06:15:19;20.23;;;18.15;;
63346;SDS011;49472;49.880;8.650;2023-06-19T06:17:45;19.55;;;17.85;;
63346;SDS011;49472;49.880;8.650;2023-06-19T06:20:13;20.02;;;18.48;;
63346;SDS011;49472;49.880;8.650;2023-06-19T06:22:39;20.52;;;19.02;;
63346;SDS011;49472;49.880;8.650;2023-06-19T06:25:05;19.33;;;17.58;;
63346;SDS011;49472;49.880;8.650;2023-06-19T06:27:32;19.25;;;17.85;;
63346;SDS011;49472;49.880;8.650;2023-06-19T06:29:57;19.73;;;17.77;;
63346;SDS011;49472;49.880;8.650;2023-06-19T06:32:22;20.60;;;18.52;;
63346;SDS011;49472;49.880;8.650;2023-06-19T06:34:48;21.55;;;18.75;;
63346;SDS011;49472;49.880;8.650;2023-06-19T06:37:13;19.77;;;18.33;;
63346;SDS011;49472;49.880;8.650;2023-06-19T06:39:42;19.80;;;18.00;;
63346;SDS011;49472;49.880;8.650;2023-06-19T06:42:07;19.10;;;17.70;;
63346;SDS011;49472;49.880;8.650;2023-06-19T06:44:33;19.02;;;17.63;;
63346;SDS011;49472;49.880;8.650;2023-06-19T06:46:58;17.65;;;16.45;;
63346;SDS011;49472;49.880;8.650;2023-06-19T06:49:24;17.33;;;16.23;;
63346;SDS011;49472;49.880;8.650;2023-06-19T06:51:49;17.85;;;16.33;;
63346;SDS011;49472;49.880;8.650;2023-06-19T06:54:14;18.38;;;16.85;;
63346;SDS011;49472;49.880;8.650;2023-06-19T06:56:40;17.60;;;16.27;;
63346;SDS011;49472;49.880;8.650;2023-06-19T06:59:06;17.27;;;15.88;;
63346;SDS011;49472;49.880;8.650;2023-06-19T07:01:31;16.88;;;15.70;;
63346;SDS011;49472;49.880;8.650;2023-06-19T07:03:56;16.33;;;14.90;;
63346;SDS011;49472;49.880;8.650;2023-06-19T07:06:23;16.42;;;15.32;;
63346;SDS011;49472;49.880;8.650;2023-06-19T07:08:48;16.60;;;15.48;;
63346;SDS011;49472;49.880;8.650;2023-06-19T07:11:13;19.90;;;15.48;;
63346;SDS011;49472;49.880;8.650;2023-06-19T07:13:39;23.10;;;21.13;;
63346;SDS011;49472;49.880;8.650;2023-06-19T07:16:06;18.40;;;16.80;;
63346;SDS011;49472;49.880;8.650;2023-06-19T07:18:32;17.40;;;16.30;;
63346;SDS011;49472;49.880;8.650;2023-06-19T07:21:00;17.63;;;16.20;;
63346;SDS011;49472;49.880;8.650;2023-06-19T07:23:25;17.10;;;15.35;;
63346;SDS011;49472;49.880;8.650;2023-06-19T07:25:51;17.15;;;15.85;;
63346;SDS011;49472;49.880;8.650;2023-06-19T07:28:16;17.40;;;16.25;;
63346;SDS011;49472;49.880;8.650;2023-06-19T07:30:41;17.25;;;16.05;;
63346;SDS011;49472;49.880;8.650;2023-06-19T07:33:07;19.38;;;17.60;;
63346;SDS011;49472;49.880;8.650;2023-06-19T07:35:32;18.90;;;17.10;;
63346;SDS011;49472;49.880;8.650;2023-06-19T07:37:57;19.52;;;18.05;;
63346;SDS011;49472;49.880;8.650;2023-06-19T07:40:23;19.50;;;17.98;;
63346;SDS011;49472;49.880;8.650;2023-06-19T07:42:48;19.05;;;17.30;;
63346;SDS011;49472;49.880;8.650;2023-06-19T07:45:13;18.63;;;17.20;;
63346;SDS011;49472;49.880;8.650;2023-06-19T07:47:39;19.70;;;17.17;;
63346;SDS011;49472;49.880;8.650;2023-06-19T07:50:04;18.42;;;17.02;;
63346;SDS011;49472;49.880;8.650;2023-06-19T07:52:30;18.20;;;16.80;;
63346;SDS011;49472;49.880;8.650;2023-06-19T07:54:56;18.80;;;17.05;;
63346;SDS011;49472;49.880;8.650;2023-06-19T07:57:23;18.55;;;17.20;;
63346;SDS011;49472;49.880;8.650;2023-06-19T07:59:50;18.98;;;17.58;;
63346;SDS011;49472;49.880;8.650;2023-06-19T08:02:16;19.50;;;17.83;;
63346;SDS011;49472;49.880;8.650;2023-06-19T08:04:42;21.27;;;17.98;;
63346;SDS011;49472;49.880;8.650;2023-06-19T08:07:08;18.90;;;17.52;;
63346;SDS011;49472;49.880;8.650;2023-06-19T08:09:33;18.13;;;16.83;;
63346;SDS011;49472;49.880;8.650;2023-06-19T08:11:59;19.10;;;17.67;;
63346;SDS011;49472;49.880;8.650;2023-06-19T08:14:26;19.50;;;17.92;;
63346;SDS011;49472;49.880;8.650;2023-06-19T08:16:51;19.05;;;17.65;;
63346;SDS011;49472;49.880;8.650;2023-06-19T08:19:16;19.15;;;17.75;;
63346;SDS011;49472;49.880;8.650;2023-06-19T08:21:42;20.08;;;18.48;;
63346;SDS011;49472;49.880;8.650;2023-06-19T08:24:08;19.50;;;18.10;;
63346;SDS011;49472;49.880;8.650;2023-06-19T08:26:33;20.73;;;18.65;;
63346;SDS011;49472;49.880;8.650;2023-06-19T08:29:00;20.23;;;18.50;;
63346;SDS011;49472;49.880;8.650;2023-06-19T08:31:25;20.48;;;18.33;;
63346;SDS011;49472;49.880;8.650;2023-06-19T08:33:53;19.52;;;18.13;;
63346;SDS011;49472;49.880;8.650;2023-06-19T08:36:18;19.83;;;18.05;;
63346;SDS011;49472;49.880;8.650;2023-06-19T08:38:44;19.38;;;18.08;;
63346;SDS011;49472;49.880;8.650;2023-06-19T08:41:10;18.02;;;16.92;;
63346;SDS011;49472;49.880;8.650;2023-06-19T08:43:36;19.42;;;17.77;;
63346;SDS011;49472;49.880;8.650;2023-06-19T08:48:27;19.13;;;17.70;;
63346;SDS011;49472;49.880;8.650;2023-06-19T08:50:52;19.50;;;17.95;;
63346;SDS011;49472;49.880;8.650;2023-06-19T08:53:20;18.48;;;17.27;;
63346;SDS011;49472;49.880;8.650;2023-06-19T08:55:45;20.63;;;18.65;;
63346;SDS011;49472;49.880;8.650;2023-06-19T08:58:11;20.10;;;18.60;;
63346;SDS011;49472;49.880;8.650;2023-06-19T09:00:36;20.83;;;18.27;;
63346;SDS011;49472;49.880;8.650;2023-06-19T09:03:02;18.58;;;17.27;;
63346;SDS011;49472;49.880;8.650;2023-06-19T09:05:28;19.98;;;18.23;;
63346;SDS011;49472;49.880;8.650;2023-06-19T09:07:57;20.00;;;17.92;;
63346;SDS011;49472;49.880;8.650;2023-06-19T09:10:27;18.95;;;17.48;;
63346;SDS011;49472;49.880;8.650;2023-06-19T09:13:00;18.40;;;16.98;;
63346;SDS011;49472;49.880;8.650;2023-06-19T09:15:27;19.08;;;17.50;;
63346;SDS011;49472;49.880;8.650;2023-06-19T09:18:10;17.42;;;16.13;;
63346;SDS011;49472;49.880;8.650;2023-06-19T09:20:40;19.15;;;17.75;;
63346;SDS011;49472;49.880;8.650;2023-06-19T09:23:09;20.23;;;18.17;;
63346;SDS011;49472;49.880;8.650;2023-06-19T09:25:51;19.70;;;17.75;;
63346;SDS011;49472;49.880;8.650;2023-06-19T09:30:51;19.80;;;18.10;;
63346;SDS011;49472;49.880;8.650;2023-06-19T09:33:27;19.45;;;17.95;;
63346;SDS011;49472;49.880;8.650;2023-06-19T09:35:57;19.17;;;17.63;;
63346;SDS011;49472;49.880;8.650;2023-06-19T09:38:24;20.58;;;17.38;;
63346;SDS011;49472;49.880;8.650;2023-06-19T09:40:51;19.63;;;18.30;;
63346;SDS011;49472;49.880;8.650;2023-06-19T09:43:39;21.30;;;19.40;;
63346;SDS011;49472;49.880;8.650;2023-06-19T09:46:06;20.98;;;19.40;;
63346;SDS011;49472;49.880;8.650;2023-06-19T09:48:32;21.13;;;19.00;;
63346;SDS011;49472;49.880;8.650;2023-06-19T09:51:16;19.23;;;17.60;;
63346;SDS011;49472;49.880;8.650;2023-06-19T09:53:47;19.38;;;18.08;;
63346;SDS011;49472;49.880;8.650;2023-06-19T09:56:14;19.15;;;17.65;;
63346;SDS011;49472;49.880;8.650;2023-06-19T09:58:42;19.20;;;17.75;;
63346;SDS011;49472;49.880;8.650;2023-06-19T10:01:10;18.88;;;17.48;;
63346;SDS011;49472;49.880;8.650;2023-06-19T10:03:38;18.50;;;17.10;;
63346;SDS011;49472;49.880;8.650;2023-06-19T10:06:05;19.02;;;17.83;;
63346;SDS011;49472;49.880;8.650;2023-06-19T10:08:32;18.52;;;16.50;;
63346;SDS011;49472;49.880;8.650;2023-06-19T10:11:04;18.08;;;16.65;;
63346;SDS011;49472;49.880;8.650;2023-06-19T10:13:33;18.33;;;17.13;;
63346;SDS011;49472;49.880;8.650;2023-06-19T10:16:04;19.15;;;17.65;;
63346;SDS011;49472;49.880;8.650;2023-06-19T10:18:31;18.27;;;16.98;;
63346;SDS011;49472;49.880;8.650;2023-06-19T10:20:58;19.95;;;18.35;;
63346;SDS011;49472;49.880;8.650;2023-06-19T10:23:24;19.25;;;17.77;;
63346;SDS011;49472;49.880;8.650;2023-06-19T10:33:28;17.95;;;16.73;;
63346;SDS011;49472;49.880;8.650;2023-06-19T10:35:57;19.25;;;17.85;;
63346;SDS011;49472;49.880;8.650;2023-06-19T10:38:24;19.15;;;17.80;;
63346;SDS011;49472;49.880;8.650;2023-06-19T10:40:50;19.65;;;18.20;;
63346;SDS011;49472;49.880;8.650;2023-06-19T10:43:22;18.42;;;16.92;;
63346;SDS011;49472;49.880;8.650;2023-06-19T10:45:50;19.45;;;18.15;;
63346;SDS011;49472;49.880;8.650;2023-06-19T10:48:23;18.52;;;17.23;;
63346;SDS011;49472;49.880;8.650;2023-06-19T10:50:49;18.52;;;16.85;;
63346;SDS011;49472;49.880;8.650;2023-06-19T10:53:28;18.52;;;17.23;;
63346;SDS011;49472;49.880;8.650;2023-06-19T10:55:59;19.30;;;18.00;;
63346;SDS011;49472;49.880;8.650;2023-06-19T10:58:25;18.63;;;17.23;;
63346;SDS011;49472;49.880;8.650;2023-06-19T11:00:51;23.38;;;17.67;;
63346;SDS011;49472;49.880;8.650;2023-06-19T11:03:16;20.10;;;18.23;;
63346;SDS011;49472;49.880;8.650;2023-06-19T11:05:43;18.67;;;17.33;;
63346;SDS011;49472;49.880;8.650;2023-06-19T11:08:09;19.95;;;18.02;;
63346;SDS011;49472;49.880;8.650;2023-06-19T11:10:35;18.75;;;16.95;;
63346;SDS011;49472;49.880;8.650;2023-06-19T11:13:02;17.58;;;16.27;;
63346;SDS011;49472;49.880;8.650;2023-06-19T11:15:28;17.33;;;16.23;;
63346;SDS011;49472;49.880;8.650;2023-06-19T11:17:57;16.63;;;15.52;;
63346;SDS011;49472;49.880;8.650;2023-06-19T11:20:23;17.63;;;16.45;;
63346;SDS011;49472;49.880;8.650;2023-06-19T11:22:53;16.90;;;15.80;;
63346;SDS011;49472;49.880;8.650;2023-06-19T11:25:20;17.65;;;16.20;;
63346;SDS011;49472;49.880;8.650;2023-06-19T11:27:46;17.17;;;15.85;;
63346;SDS011;49472;49.880;8.650;2023-06-19T11:30:16;16.85;;;15.80;;
63346;SDS011;49472;49.880;8.650;2023-06-19T11:32:42;18.48;;;16.98;;
63346;SDS011;49472;49.880;8.650;2023-06-19T11:35:10;17.42;;;16.13;;
63346;SDS011;49472;49.880;8.650;2023-06-19T11:37:39;17.23;;;16.02;;
63346;SDS011;49472;49.880;8.650;2023-06-19T11:40:06;16.30;;;15.00;;
63346;SDS011;49472;49.880;8.650;2023-06-19T11:42:51;15.85;;;14.82;;
63346;SDS011;49472;49.880;8.650;2023-06-19T11:45:17;17.20;;;16.00;;
63346;SDS011;49472;49.880;8.650;2023-06-19T11:47:43;17.85;;;16.50;;
63346;SDS011;49472;49.880;8.650;2023-06-19T11:50:10;17.35;;;15.95;;
63346;SDS011;49472;49.880;8.650;2023-06-19T11:52:35;18.83;;;17.63;;
63346;SDS011;49472;49.880;8.650;2023-06-19T11:55:01;18.05;;;16.40;;
63346;SDS011;49472;49.880;8.650;2023-06-19T11:57:26;17.05;;;15.70;;
63346;SDS011;49472;49.880;8.650;2023-06-19T11:59:52;16.77;;;15.55;;
63346;SDS011;49472;49.880;8.650;2023-06-19T12:02:17;17.17;;;16.00;;
63346;SDS011;49472;49.880;8.650;2023-06-19T12:04:42;15.95;;;14.75;;
63346;SDS011;49472;49.880;8.650;2023-06-19T12:07:08;15.55;;;14.18;;
63346;SDS011;49472;49.880;8.650;2023-06-19T12:09:33;15.32;;;14.43;;
63346;SDS011;49472;49.880;8.650;2023-06-19T12:11:59;15.88;;;14.82;;
63346;SDS011;49472;49.880;8.650;2023-06-19T12:14:25;15.65;;;14.65;;
63346;SDS011;49472;49.880;8.650;2023-06-19T12:16:51;15.55;;;14.55;;
63346;SDS011;49472;49.880;8.650;2023-06-19T12:19:16;15.65;;;14.65;;
63346;SDS011;49472;49.880;8.650;2023-06-19T12:21:42;15.48;;;14.02;;
63346;SDS011;49472;49.880;8.650;2023-06-19T12:24:07;15.45;;;14.38;;
63346;SDS011;49472;49.880;8.650;2023-06-19T12:26:36;14.57;;;13.77;;
63346;SDS011;49472;49.880;8.650;2023-06-19T12:29:02;15.20;;;14.23;;
63346;SDS011;49472;49.880;8.650;2023-06-19T12:31:28;14.93;;;13.93;;
63346;SDS011;49472;49.880;8.650;2023-06-19T12:33:54;15.55;;;14.55;;
63346;SDS011;49472;49.880;8.650;2023-06-19T12:36:19;15.80;;;13.30;;
63346;SDS011;49472;49.880;8.650;2023-06-19T12:38:44;15.85;;;14.80;;
63346;SDS011;49472;49.880;8.650;2023-06-19T12:41:12;14.95;;;14.13;;
63346;SDS011;49472;49.880;8.650;2023-06-19T12:43:38;14.13;;;13.23;;
63346;SDS011;49472;49.880;8.650;2023-06-19T12:46:03;14.88;;;13.88;;
63346;SDS011;49472;49.880;8.650;2023-06-19T12:48:29;15.15;;;14.02;;
63346;SDS011;49472;49.880;8.650;2023-06-19T12:50:54;14.10;;;13.25;;
63346;SDS011;49472;49.880;8.650;2023-06-19T12:53:19;15.20;;;14.20;;
63346;SDS011;49472;49.880;8.650;2023-06-19T12:55:46;14.93;;;14.02;;
63346;SDS011;49472;49.880;8.650;2023-06-19T12:58:11;15.30;;;14.30;;
63346;SDS011;49472;49.880;8.650;2023-06-19T13:00:37;14.00;;;13.20;;
63346;SDS011;49472;49.880;8.650;2023-06-19T13:03:02;14.90;;;13.80;;
63346;SDS011;49472;49.880;8.650;2023-06-19T13:05:28;15.30;;;14.40;;
63346;SDS011;49472;49.880;8.650;2023-06-19T13:07:53;14.70;;;13.82;;
63346;SDS011;49472;49.880;8.650;2023-06-19T13:10:18;14.55;;;13.75;;
63346;SDS011;49472;49.880;8.650;2023-06-19T13:12:44;14.68;;;13.80;;
63346;SDS011;49472;49.880;8.650;2023-06-19T13:15:09;15.02;;;13.75;;
63346;SDS011;49472;49.880;8.650;2023-06-19T13:17:35;13.95;;;13.25;;
63346;SDS011;49472;49.880;8.650;2023-06-19T13:20:00;14.40;;;13.57;;
63346;SDS011;49472;49.880;8.650;2023-06-19T13:22:26;17.55;;;14.10;;
63346;SDS011;49472;49.880;8.650;2023-06-19T13:24:51;14.52;;;13.40;;
63346;SDS011;49472;49.880;8.650;2023-06-19T13:27:17;14.60;;;13.63;;
63346;SDS011;49472;49.880;8.650;2023-06-19T13:29:43;14.85;;;13.82;;
63346;SDS011;49472;49.880;8.650;2023-06-19T13:32:09;15.05;;;14.00;;
63346;SDS011;49472;49.880;8.650;2023-06-19T13:34:34;14.40;;;13.43;;
63346;SDS011;49472;49.880;8.650;2023-06-19T13:36:59;14.52;;;13.73;;
63346;SDS011;49472;49.880;8.650;2023-06-19T13:39:25;13.20;;;12.40;;
63346;SDS011;49472;49.880;8.650;2023-06-19T13:41:50;15.02;;;13.95;;
63346;SDS011;49472;49.880;8.650;2023-06-19T13:44:16;13.80;;;12.90;;
63346;SDS011;49472;49.880;8.650;2023-06-19T13:46:42;13.75;;;12.80;;
63346;SDS011;49472;49.880;8.650;2023-06-19T13:49:07;12.98;;;12.18;;
63346;SDS011;49472;49.880;8.650;2023-06-19T13:51:33;12.48;;;11.80;;
63346;SDS011;49472;49.880;8.650;2023-06-19T13:53:58;13.50;;;12.52;;
63346;SDS011;49472;49.880;8.650;2023-06-19T13:56:23;12.50;;;11.60;;
63346;SDS011;49472;49.880;8.650;2023-06-19T13:58:49;12.20;;;11.52;;
63346;SDS011;49472;49.880;8.650;2023-06-19T14:01:14;12.50;;;11.68;;
63346;SDS011;49472;49.880;8.650;2023-06-19T14:03:40;12.50;;;11.80;;
63346;SDS011;49472;49.880;8.650;2023-06-19T14:06:06;12.32;;;11.60;;
63346;SDS011;49472;49.880;8.650;2023-06-19T14:08:32;12.35;;;11.52;;
63346;SDS011;49472;49.880;8.650;2023-06-19T14:10:58;12.20;;;11.32;;
63346;SDS011;49472;49.880;8.650;2023-06-19T14:13:23;12.50;;;11.70;;
63346;SDS011;49472;49.880;8.650;2023-06-19T14:15:49;13.25;;;12.13;;
63346;SDS011;49472;49.880;8.650;2023-06-19T14:18:14;39.28;;;16.08;;
63346;SDS011;49472;49.880;8.650;2023-06-19T14:20:39;11.60;;;10.90;;
63346;SDS011;49472;49.880;8.650;2023-06-19T14:23:06;11.63;;;11.10;;
63346;SDS011;49472;49.880;8.650;2023-06-19T14:25:32;14.20;;;12.80;;
63346;SDS011;49472;49.880;8.650;2023-06-19T14:27:58;13.40;;;12.30;;
63346;SDS011;49472;49.880;8.650;2023-06-19T14:30:24;11.43;;;10.82;;
63346;SDS011;49472;49.880;8.650;2023-06-19T14:32:51;11.98;;;11.20;;